createdAt,value
2018-09-16T00:00:57.168Z,33.20
2018-09-16T00:03:29.181Z,34.40
2018-09-16T00:06:01.094Z,31.80
2018-09-16T00:08:34.032Z,33.00
2018-09-16T00:11:05.901Z,35.20
2018-09-16T00:13:37.999Z,33.60
2018-09-16T00:16:09.950Z,32.60
2018-09-16T00:18:42.019Z,33.20
2018-09-16T00:21:14.190Z,32.20
2018-09-16T00:23:45.881Z,33.00
2018-09-16T00:26:17.621Z,35.20
2018-09-16T00:28:49.820Z,36.20
2018-09-16T00:31:21.776Z,34.20
2018-09-16T00:33:53.720Z,34.20
2018-09-16T00:36:25.879Z,34.40
2018-09-16T00:38:57.551Z,35.40
2018-09-16T00:41:29.620Z,34.00
2018-09-16T00:44:02.071Z,33.40
2018-09-16T00:46:33.925Z,33.00
2018-09-16T00:49:06.545Z,33.40
2018-09-16T00:51:38.401Z,35.80
2018-09-16T00:54:10.534Z,31.20
2018-09-16T00:56:42.223Z,33.20
2018-09-16T00:59:14.082Z,32.20
2018-09-16T01:01:45.999Z,37.20
2018-09-16T01:04:17.935Z,38.40
2018-09-16T01:06:50.022Z,37.00
2018-09-16T01:09:22.264Z,35.60
2018-09-16T01:11:54.948Z,37.80
2018-09-16T01:14:27.402Z,37.60
2018-09-16T01:16:59.278Z,38.60
2018-09-16T01:19:31.862Z,38.00
2018-09-16T01:22:03.978Z,40.40
2018-09-16T01:24:36.340Z,40.60
2018-09-16T01:27:08.457Z,40.80
2018-09-16T01:29:41.509Z,41.20
2018-09-16T01:32:13.424Z,42.60
2018-09-16T01:34:45.229Z,40.80
2018-09-16T01:37:21.871Z,42.20
2018-09-16T01:39:54.284Z,40.80
2018-09-16T01:42:26.118Z,42.60
2018-09-16T01:44:58.157Z,38.60
2018-09-16T01:47:29.810Z,40.00
2018-09-16T01:50:02.579Z,39.00
2018-09-16T01:52:35.353Z,37.00
2018-09-16T01:55:07.485Z,38.40
2018-09-16T01:57:39.685Z,39.00
2018-09-16T02:00:11.426Z,40.20
2018-09-16T02:02:43.566Z,38.60
2018-09-16T02:05:20.036Z,38.80
2018-09-16T02:07:52.185Z,38.00
2018-09-16T02:10:24.549Z,33.00
2018-09-16T02:12:56.533Z,34.80
2018-09-16T02:15:28.749Z,39.40
2018-09-16T02:18:00.698Z,39.60
2018-09-16T02:20:33.154Z,35.20
2018-09-16T02:23:05.089Z,38.60
2018-09-16T02:25:37.509Z,36.00
2018-09-16T02:28:09.309Z,38.20
2018-09-16T02:30:41.719Z,38.60
2018-09-16T02:33:13.783Z,39.00
2018-09-16T02:35:46.036Z,35.60
2018-09-16T02:38:17.893Z,37.20
2018-09-16T02:40:49.669Z,37.20
2018-09-16T02:43:21.549Z,41.00
2018-09-16T02:45:53.469Z,41.20
2018-09-16T02:48:25.591Z,41.80
2018-09-16T02:50:57.933Z,40.20
2018-09-16T02:53:30.778Z,36.20
2018-09-16T02:56:03.468Z,41.20
2018-09-16T02:58:35.748Z,40.20
2018-09-16T03:01:08.239Z,39.80
2018-09-16T03:03:40.533Z,39.40
2018-09-16T03:06:12.680Z,41.00
2018-09-16T03:08:45.029Z,39.20
2018-09-16T03:11:16.912Z,39.80
2018-09-16T03:13:48.635Z,37.60
2018-09-16T03:16:20.459Z,38.00
2018-09-16T03:18:52.632Z,38.60
2018-09-16T03:21:25.457Z,40.40
2018-09-16T03:23:57.087Z,39.80
2018-09-16T03:26:29.166Z,37.20
2018-09-16T03:29:01.342Z,43.00
2018-09-16T03:31:33.890Z,40.00
2018-09-16T03:34:06.477Z,41.60
2018-09-16T03:36:38.552Z,38.40
2018-09-16T03:39:12.091Z,40.20
2018-09-16T03:41:44.060Z,39.40
2018-09-16T03:44:15.871Z,41.80
2018-09-16T03:46:47.781Z,39.20
2018-09-16T03:49:19.444Z,40.80
2018-09-16T03:51:51.548Z,38.40
2018-09-16T03:54:23.736Z,37.20
2018-09-16T03:56:55.655Z,40.00
2018-09-16T03:59:27.444Z,41.60
2018-09-16T04:01:59.264Z,38.80
2018-09-16T04:04:30.861Z,39.40
2018-09-16T04:07:03.127Z,39.20
2018-09-16T04:09:35.778Z,40.40
2018-09-16T04:12:08.376Z,38.20
2018-09-16T04:14:40.408Z,35.40
2018-09-16T04:17:12.303Z,37.00
2018-09-16T04:19:44.049Z,36.40
2018-09-16T04:22:15.788Z,36.80
2018-09-16T04:24:48.460Z,33.60
2018-09-16T04:27:20.247Z,38.60
2018-09-16T04:29:52.051Z,32.20
2018-09-16T04:32:24.118Z,33.20
2018-09-16T04:34:56.109Z,33.60
2018-09-16T04:37:28.402Z,35.40
2018-09-16T04:40:00.023Z,36.80
2018-09-16T04:42:32.061Z,36.60
2018-09-16T04:45:03.850Z,36.00
2018-09-16T04:47:35.723Z,34.20
2018-09-16T04:50:08.512Z,30.60
2018-09-16T04:52:40.417Z,34.20
2018-09-16T04:55:12.579Z,38.40
2018-09-16T04:57:44.275Z,39.60
2018-09-16T05:00:15.948Z,42.40
2018-09-16T05:02:47.725Z,41.00
2018-09-16T05:05:19.416Z,40.40
2018-09-16T05:07:51.593Z,41.00
2018-09-16T05:10:23.706Z,43.20
2018-09-16T05:12:55.755Z,41.00
2018-09-16T05:15:27.443Z,38.00
2018-09-16T05:17:59.890Z,40.60
2018-09-16T05:20:31.822Z,35.00
2018-09-16T05:23:04.881Z,39.00
2018-09-16T05:25:36.944Z,39.20
2018-09-16T05:28:09.365Z,36.00
2018-09-16T05:30:41.417Z,35.00
2018-09-16T05:33:13.782Z,36.40
2018-09-16T05:35:45.738Z,33.00
2018-09-16T05:38:17.432Z,32.60
2018-09-16T05:40:49.213Z,31.60
2018-09-16T05:43:21.326Z,33.20
2018-09-16T05:45:53.104Z,32.40
2018-09-16T05:48:25.051Z,32.00
2018-09-16T05:50:56.854Z,30.60
2018-09-16T05:53:28.929Z,33.00
2018-09-16T05:56:00.515Z,32.40
2018-09-16T05:58:32.399Z,32.80
2018-09-16T06:01:04.321Z,33.20
2018-09-16T06:03:36.132Z,30.00
2018-09-16T06:06:08.132Z,30.60
2018-09-16T06:08:39.956Z,31.80
2018-09-16T06:11:11.809Z,28.00
2018-09-16T06:13:43.702Z,27.80
2018-09-16T06:16:15.526Z,32.20
2018-09-16T06:18:47.087Z,31.00
2018-09-16T06:21:18.853Z,30.20
2018-09-16T06:23:50.500Z,26.40
2018-09-16T06:26:22.952Z,32.00
2018-09-16T06:28:54.784Z,33.00
2018-09-16T06:31:26.340Z,31.00
2018-09-16T06:33:58.259Z,30.00
2018-09-16T06:36:30.257Z,28.80
2018-09-16T06:39:02.103Z,30.00
2018-09-16T06:41:33.942Z,31.80
2018-09-16T06:44:05.638Z,29.20
2018-09-16T06:46:37.597Z,31.40
2018-09-16T06:49:09.734Z,28.20
2018-09-16T06:51:42.512Z,29.80
2018-09-16T06:54:14.489Z,32.00
2018-09-16T06:56:46.507Z,27.20
2018-09-16T06:59:18.230Z,28.80
2018-09-16T07:01:49.881Z,28.40
2018-09-16T07:04:21.702Z,29.60
2018-09-16T07:06:53.706Z,27.00
2018-09-16T07:09:25.815Z,30.00
2018-09-16T07:11:57.510Z,27.80
2018-09-16T07:14:30.771Z,28.60
2018-09-16T07:17:02.642Z,29.80
2018-09-16T07:19:34.489Z,29.40
2018-09-16T07:22:06.282Z,29.80
2018-09-16T07:24:37.988Z,28.00
2018-09-16T07:27:09.432Z,28.00
2018-09-16T07:29:41.258Z,28.40
2018-09-16T07:32:12.821Z,29.40
2018-09-16T07:34:45.819Z,25.00
2018-09-16T07:37:17.576Z,32.00
2018-09-16T07:39:49.309Z,30.00
2018-09-16T07:42:20.933Z,30.40
2018-09-16T07:44:53.657Z,29.80
2018-09-16T07:47:25.618Z,27.00
2018-09-16T07:49:57.402Z,25.20
2018-09-16T07:52:29.015Z,26.20
2018-09-16T07:55:00.832Z,27.00
2018-09-16T07:57:32.797Z,26.40
2018-09-16T08:00:04.619Z,24.60
2018-09-16T08:02:36.528Z,26.80
2018-09-16T08:05:08.433Z,27.20
2018-09-16T08:07:40.224Z,25.80
2018-09-16T08:10:12.322Z,23.20
2018-09-16T08:12:43.968Z,25.60
2018-09-16T08:15:15.911Z,26.40
2018-09-16T08:17:47.628Z,23.60
2018-09-16T08:20:19.519Z,21.00
2018-09-16T08:22:51.310Z,23.20
2018-09-16T08:25:23.225Z,25.20
2018-09-16T08:27:56.711Z,25.00
2018-09-16T08:30:28.560Z,23.20
2018-09-16T08:33:00.211Z,24.60
2018-09-16T08:35:32.368Z,22.60
2018-09-16T08:38:04.029Z,22.20
2018-09-16T08:40:35.826Z,16.00
2018-09-16T08:43:07.360Z,22.20
2018-09-16T08:45:39.273Z,25.60
2018-09-16T08:48:11.015Z,22.80
2018-09-16T08:50:43.094Z,23.00
2018-09-16T08:53:14.937Z,24.20
2018-09-16T08:55:46.791Z,23.80
2018-09-16T08:58:18.439Z,25.80
2018-09-16T09:00:50.512Z,20.60
2018-09-16T09:03:22.218Z,22.80
2018-09-16T09:05:54.033Z,22.40
2018-09-16T09:08:25.673Z,18.60
2018-09-16T09:10:57.314Z,20.20
2018-09-16T09:13:29.007Z,22.00
2018-09-16T09:16:01.581Z,19.00
2018-09-16T09:18:33.246Z,21.60
2018-09-16T09:21:05.158Z,21.60
2018-09-16T09:23:37.265Z,20.40
2018-09-16T09:26:09.160Z,19.20
2018-09-16T09:28:40.988Z,20.80
2018-09-16T09:31:12.698Z,16.20
2018-09-16T09:33:45.213Z,16.00
2018-09-16T09:36:16.879Z,19.40
2018-09-16T09:38:48.960Z,18.20
2018-09-16T09:41:20.843Z,20.40
2018-09-16T09:43:52.824Z,20.00
2018-09-16T09:46:24.531Z,22.00
2018-09-16T09:48:56.311Z,20.40
2018-09-16T09:51:28.362Z,19.80
2018-09-16T09:54:00.123Z,17.80
2018-09-16T09:56:32.067Z,22.40
2018-09-16T09:59:05.355Z,20.00
2018-09-16T10:01:38.699Z,22.40
2018-09-16T10:04:10.336Z,22.00
2018-09-16T10:06:41.928Z,21.00
2018-09-16T10:09:14.087Z,22.60
2018-09-16T10:11:45.975Z,21.60
2018-09-16T10:14:17.385Z,19.00
2018-09-16T10:16:49.158Z,21.20
2018-09-16T10:19:20.799Z,21.60
2018-09-16T10:21:52.560Z,21.60
2018-09-16T10:24:24.253Z,21.40
2018-09-16T10:26:56.020Z,25.40
2018-09-16T10:29:27.750Z,23.00
2018-09-16T10:31:59.497Z,20.40
2018-09-16T10:34:31.455Z,23.60
2018-09-16T10:37:03.110Z,23.00
2018-09-16T10:39:34.737Z,25.00
2018-09-16T10:42:08.256Z,22.00
2018-09-16T10:44:39.647Z,23.00
2018-09-16T10:47:11.336Z,27.80
2018-09-16T10:49:43.614Z,25.00
2018-09-16T10:52:16.468Z,22.20
2018-09-16T10:54:48.119Z,21.60
2018-09-16T10:57:19.978Z,22.60
2018-09-16T10:59:51.693Z,21.80
2018-09-16T11:02:23.570Z,24.20
2018-09-16T11:04:56.184Z,23.60
2018-09-16T11:07:29.076Z,20.20
2018-09-16T11:10:02.339Z,24.20
2018-09-16T11:12:33.902Z,23.80
2018-09-16T11:15:05.953Z,16.80
2018-09-16T11:17:37.701Z,19.00
2018-09-16T11:20:10.920Z,18.40
2018-09-16T11:22:42.670Z,21.20
2018-09-16T11:25:14.428Z,15.20
2018-09-16T11:27:46.254Z,23.20
2018-09-16T11:30:18.918Z,23.80
2018-09-16T11:32:50.796Z,21.60
2018-09-16T11:35:22.401Z,23.20
2018-09-16T11:37:54.271Z,21.20
2018-09-16T11:40:25.787Z,21.60
2018-09-16T11:42:57.663Z,23.00
2018-09-16T11:45:29.428Z,22.20
2018-09-16T11:48:01.305Z,20.40
2018-09-16T11:50:32.966Z,21.80
2018-09-16T11:53:04.787Z,21.00
2018-09-16T11:55:36.639Z,25.00
2018-09-16T11:58:08.543Z,22.20
2018-09-16T12:00:40.202Z,17.00
2018-09-16T12:03:12.033Z,22.80
2018-09-16T12:05:43.695Z,19.60
2018-09-16T12:08:15.519Z,17.80
2018-09-16T12:10:47.259Z,22.20
2018-09-16T12:13:19.217Z,22.20
2018-09-16T12:15:50.975Z,22.60
2018-09-16T12:18:22.907Z,22.40
2018-09-16T12:20:54.709Z,22.60
2018-09-16T12:23:26.553Z,24.20
2018-09-16T12:25:58.099Z,22.20
2018-09-16T12:28:29.952Z,21.20
2018-09-16T12:31:02.311Z,20.60
2018-09-16T12:33:34.150Z,23.40
2018-09-16T12:36:05.839Z,22.00
2018-09-16T12:38:37.709Z,24.60
2018-09-16T12:41:09.613Z,25.20
2018-09-16T12:43:41.397Z,21.80
2018-09-16T12:46:14.032Z,25.60
2018-09-16T12:48:45.714Z,24.80
2018-09-16T12:51:17.422Z,26.00
2018-09-16T12:53:49.237Z,25.80
2018-09-16T12:56:20.935Z,24.40
2018-09-16T12:58:52.475Z,24.80
2018-09-16T13:01:24.216Z,23.80
2018-09-16T13:03:55.896Z,22.80
2018-09-16T13:06:27.529Z,26.20
2018-09-16T13:08:59.133Z,25.80
2018-09-16T13:11:30.883Z,27.00
2018-09-16T13:14:02.731Z,26.00
2018-09-16T13:16:34.569Z,21.20
2018-09-16T13:19:06.517Z,28.40
2018-09-16T13:21:38.316Z,26.20
2018-09-16T13:24:09.460Z,29.60
2018-09-16T13:26:41.185Z,28.80
2018-09-16T13:29:12.966Z,30.00
2018-09-16T13:31:45.282Z,30.20
2018-09-16T13:34:17.157Z,30.20
2018-09-16T13:36:48.542Z,30.60
2018-09-16T13:39:20.237Z,31.80
2018-09-16T13:41:51.968Z,31.60
2018-09-16T13:44:23.539Z,29.20
2018-09-16T13:46:55.298Z,33.00
2018-09-16T13:49:27.077Z,33.40
2018-09-16T13:51:58.744Z,28.40
2018-09-16T13:54:30.885Z,27.60
2018-09-16T13:57:02.667Z,32.60
2018-09-16T13:59:34.451Z,31.80
2018-09-16T14:02:06.155Z,31.80
2018-09-16T14:04:38.088Z,31.40
2018-09-16T14:07:09.762Z,29.40
2018-09-16T14:09:41.615Z,31.80
2018-09-16T14:12:13.344Z,34.00
2018-09-16T14:14:44.977Z,30.60
2018-09-16T14:17:16.776Z,30.20
2018-09-16T14:19:48.589Z,35.40
2018-09-16T14:22:20.295Z,35.00
2018-09-16T14:24:52.110Z,35.20
2018-09-16T14:27:23.744Z,38.00
2018-09-16T14:29:55.713Z,36.60
2018-09-16T14:32:27.798Z,36.40
2018-09-16T14:34:59.527Z,41.80
2018-09-16T14:37:31.194Z,39.20
2018-09-16T14:40:02.972Z,38.60
2018-09-16T14:42:34.633Z,37.20
2018-09-16T14:45:06.334Z,39.00
2018-09-16T14:47:37.951Z,38.40
2018-09-16T14:50:09.722Z,36.40
2018-09-16T14:52:41.329Z,36.60
2018-09-16T14:55:13.115Z,39.00
2018-09-16T14:57:44.887Z,44.00
2018-09-16T15:00:16.611Z,42.40
2018-09-16T15:02:48.322Z,43.00
2018-09-16T15:05:19.997Z,42.80
2018-09-16T15:07:51.602Z,43.40
2018-09-16T15:10:23.318Z,42.40
2018-09-16T15:12:54.716Z,41.80
2018-09-16T15:15:26.373Z,43.00
2018-09-16T15:17:58.068Z,43.00
2018-09-16T15:20:29.895Z,40.20
2018-09-16T15:23:01.542Z,42.60
2018-09-16T15:25:33.401Z,43.40
2018-09-16T15:28:05.107Z,45.00
2018-09-16T15:30:36.932Z,47.00
2018-09-16T15:33:09.417Z,44.20
2018-09-16T15:35:41.355Z,46.80
2018-09-16T15:38:12.944Z,45.00
2018-09-16T15:40:45.395Z,44.00
2018-09-16T15:43:17.113Z,42.20
2018-09-16T15:45:49.311Z,46.80
2018-09-16T15:48:21.100Z,43.40
2018-09-16T15:50:52.872Z,42.60
2018-09-16T15:53:24.457Z,43.40
2018-09-16T15:55:56.196Z,43.40
2018-09-16T15:58:27.857Z,43.00
2018-09-16T16:00:59.605Z,42.80
2018-09-16T16:03:31.347Z,44.40
2018-09-16T16:06:03.202Z,41.80
2018-09-16T16:08:34.841Z,41.60
2018-09-16T16:11:06.740Z,42.00
2018-09-16T16:13:38.787Z,41.60
2018-09-16T16:16:14.175Z,42.80
2018-09-16T16:18:45.977Z,45.40
2018-09-16T16:21:17.859Z,41.60
2018-09-16T16:23:49.583Z,41.20
2018-09-16T16:26:21.637Z,42.20
2018-09-16T16:28:53.138Z,41.00
2018-09-16T16:31:24.688Z,39.20
2018-09-16T16:33:56.504Z,40.40
2018-09-16T16:36:28.155Z,39.80
2018-09-16T16:39:00.072Z,39.80
2018-09-16T16:41:31.878Z,42.80
2018-09-16T16:44:03.587Z,40.20
2018-09-16T16:46:35.496Z,42.40
2018-09-16T16:49:06.967Z,39.60
2018-09-16T16:51:38.807Z,41.20
2018-09-16T16:54:10.513Z,41.60
2018-09-16T16:56:42.297Z,40.60
2018-09-16T16:59:14.190Z,41.00
2018-09-16T17:01:45.925Z,39.80
2018-09-16T17:04:17.784Z,37.80
2018-09-16T17:06:49.461Z,41.00
2018-09-16T17:09:21.189Z,41.20
2018-09-16T17:11:53.096Z,37.40
2018-09-16T17:14:25.077Z,39.60
2018-09-16T17:16:57.061Z,40.40
2018-09-16T17:19:28.798Z,39.80
2018-09-16T17:22:01.956Z,39.00
2018-09-16T17:24:33.968Z,39.80
2018-09-16T17:27:05.849Z,41.60
2018-09-16T17:29:37.459Z,41.20
2018-09-16T17:32:09.396Z,40.80
2018-09-16T17:34:41.314Z,40.60
2018-09-16T17:37:12.832Z,42.40
2018-09-16T17:39:44.707Z,41.40
2018-09-16T17:42:16.357Z,39.80
2018-09-16T17:44:47.978Z,38.40
2018-09-16T17:47:20.071Z,42.40
2018-09-16T17:49:51.455Z,41.60
2018-09-16T17:52:23.254Z,33.00
2018-09-16T17:54:55.087Z,39.60
2018-09-16T17:57:27.103Z,39.80
2018-09-16T17:59:58.730Z,38.80
2018-09-16T18:02:30.602Z,37.60
2018-09-16T18:05:02.253Z,38.40
2018-09-16T18:07:34.189Z,35.80
2018-09-16T18:10:06.100Z,37.40
2018-09-16T18:12:37.931Z,40.40
2018-09-16T18:15:09.844Z,37.40
2018-09-16T18:17:41.549Z,40.40
2018-09-16T18:20:13.145Z,38.20
2018-09-16T18:22:44.690Z,39.20
2018-09-16T18:25:17.273Z,35.40
2018-09-16T18:27:49.061Z,35.80
2018-09-16T18:30:20.479Z,41.40
2018-09-16T18:32:52.322Z,35.40
2018-09-16T18:35:24.851Z,35.80
2018-09-16T18:37:56.437Z,36.40
2018-09-16T18:40:28.364Z,35.40
2018-09-16T18:43:00.200Z,26.40
2018-09-16T18:45:31.846Z,29.40
2018-09-16T18:48:04.909Z,31.80
2018-09-16T18:50:36.659Z,33.00
2018-09-16T18:53:08.826Z,34.00
2018-09-16T18:55:40.667Z,32.80
2018-09-16T18:58:12.591Z,32.20
2018-09-16T19:00:44.203Z,30.20
2018-09-16T19:03:15.989Z,32.40
2018-09-16T19:05:47.726Z,33.00
2018-09-16T19:08:19.529Z,33.00
2018-09-16T19:10:51.329Z,35.00
2018-09-16T19:13:23.174Z,31.60
2018-09-16T19:15:54.823Z,32.00
2018-09-16T19:18:26.533Z,32.00
2018-09-16T19:20:58.021Z,31.40
2018-09-16T19:23:30.458Z,32.00
2018-09-16T19:26:01.983Z,33.00
2018-09-16T19:28:33.796Z,32.20
2018-09-16T19:31:05.362Z,29.20
2018-09-16T19:33:37.309Z,31.40
2018-09-16T19:36:08.962Z,29.80
2018-09-16T19:38:40.482Z,31.40
2018-09-16T19:41:12.085Z,30.60
2018-09-16T19:43:43.941Z,31.20
2018-09-16T19:46:15.694Z,31.40
2018-09-16T19:48:47.305Z,29.40
2018-09-16T19:51:18.857Z,30.60
2018-09-16T19:53:50.674Z,29.20
2018-09-16T19:56:22.454Z,31.60
2018-09-16T19:58:54.400Z,33.00
2018-09-16T20:01:26.228Z,31.80
2018-09-16T20:03:57.753Z,33.80
2018-09-16T20:06:29.479Z,30.40
2018-09-16T20:09:01.263Z,32.00
2018-09-16T20:11:32.706Z,31.80
2018-09-16T20:14:04.451Z,32.80
2018-09-16T20:16:36.276Z,33.00
2018-09-16T20:19:08.563Z,32.40
2018-09-16T20:21:40.443Z,31.80
2018-09-16T20:24:12.358Z,34.80
2018-09-16T20:26:44.094Z,32.40
2018-09-16T20:29:15.700Z,32.60
2018-09-16T20:31:47.379Z,30.00
2018-09-16T20:34:19.179Z,29.60
2018-09-16T20:36:50.989Z,31.00
2018-09-16T20:39:22.581Z,33.00
2018-09-16T20:41:54.205Z,31.20
2018-09-16T20:44:26.090Z,32.00
2018-09-16T20:46:57.704Z,32.40
2018-09-16T20:49:29.556Z,32.00
2018-09-16T20:52:01.304Z,31.20
2018-09-16T20:54:33.004Z,32.20
2018-09-16T20:57:04.781Z,30.00
2018-09-16T20:59:36.562Z,31.00
2018-09-16T21:02:08.554Z,31.40
2018-09-16T21:04:40.455Z,32.80
2018-09-16T21:07:12.262Z,31.60
2018-09-16T21:09:44.525Z,23.20
2018-09-16T21:12:16.286Z,26.80
2018-09-16T21:14:48.164Z,28.40
2018-09-16T21:17:19.875Z,29.00
2018-09-16T21:19:51.627Z,30.20
2018-09-16T21:22:23.278Z,29.80
2018-09-16T21:24:55.654Z,27.60
2018-09-16T21:27:27.498Z,31.20
2018-09-16T21:29:59.348Z,31.80
2018-09-16T21:32:31.461Z,30.00
2018-09-16T21:35:03.488Z,31.60
2018-09-16T21:37:34.883Z,33.00
2018-09-16T21:40:06.908Z,31.40
2018-09-16T21:42:38.643Z,27.00
2018-09-16T21:45:10.519Z,30.00
2018-09-16T21:47:42.255Z,30.80
2018-09-16T21:50:14.238Z,32.00
2018-09-16T21:52:45.977Z,32.00
2018-09-16T21:55:17.783Z,32.60
2018-09-16T21:57:49.786Z,33.00
2018-09-16T22:00:23.215Z,32.80
2018-09-16T22:02:54.854Z,32.60
2018-09-16T22:05:26.717Z,33.60
2018-09-16T22:07:58.275Z,31.40
2018-09-16T22:10:30.078Z,30.20
2018-09-16T22:13:01.707Z,33.40
2018-09-16T22:15:33.336Z,34.00
2018-09-16T22:18:04.989Z,32.00
2018-09-16T22:20:36.957Z,32.60
2018-09-16T22:23:08.899Z,30.40
2018-09-16T22:25:41.188Z,33.00
2018-09-16T22:28:12.595Z,35.60
2018-09-16T22:30:44.474Z,32.00
2018-09-16T22:33:16.202Z,31.60
2018-09-16T22:35:47.955Z,34.00
2018-09-16T22:38:19.581Z,33.00
2018-09-16T22:40:51.340Z,33.00
2018-09-16T22:43:22.958Z,36.60
2018-09-16T22:45:54.909Z,31.60
2018-09-16T22:48:26.687Z,32.00
2018-09-16T22:50:58.560Z,31.80
2018-09-16T22:53:29.901Z,31.00
2018-09-16T22:56:01.952Z,32.60
2018-09-16T22:58:33.736Z,30.60
2018-09-16T23:01:05.607Z,29.40
2018-09-16T23:03:37.204Z,33.00
2018-09-16T23:06:08.978Z,32.20
2018-09-16T23:08:40.703Z,30.00
2018-09-16T23:11:12.211Z,31.60
2018-09-16T23:13:43.868Z,33.60
2018-09-16T23:16:15.480Z,30.80
2018-09-16T23:18:47.384Z,30.40
2018-09-16T23:21:19.467Z,30.00
2018-09-16T23:23:51.184Z,28.40
2018-09-16T23:26:23.737Z,29.80
2018-09-16T23:28:55.570Z,32.00
2018-09-16T23:31:27.262Z,30.60
2018-09-16T23:33:58.738Z,32.80
2018-09-16T23:36:30.713Z,29.40
2018-09-16T23:39:02.446Z,33.00
2018-09-16T23:41:34.294Z,32.60
2018-09-16T23:44:06.057Z,33.80
2018-09-16T23:46:38.184Z,32.60
2018-09-16T23:49:09.869Z,34.00
2018-09-16T23:51:41.774Z,33.20
2018-09-16T23:54:13.370Z,33.00
2018-09-16T23:56:45.267Z,36.00
2018-09-16T23:59:16.869Z,34.00
